Jump to: Map   Top of Page   Track Data   Planned Ports of Call   Notes   Bottom of Page
  Track data: (most recent on top)
  Each icon on the map marks a measurement point in this list.

  At 2024-06-24T18:01CKT/HST - Marumaru Atua to Avarua - 1674 nm, 202 degrees
  https://www.shntn.net/map_civs/
      Date-Time(UTC)       Cook Islands Std-Time    Approximate-Local-Time    Latitude  Longitude  Course Speed Vessel
  YYYY-MM-DDThh:mm:ss    YYYY-MM-DDThh:mm:ss-10:00 YYYY-MM-DDThh:mm:ss∓HH:MM   degrees    degrees degrees knots
  2024-06-25T04:01:06UTC 2024-06-24T18:01:06CKT    2024-06-24T18:01:06-1000    4.53041 -148.52238     191   2.8 MarumaruAtua
  2024-06-25T03:01:06UTC 2024-06-24T17:01:06CKT    2024-06-24T17:01:06-1000    4.57567 -148.51333      92   5.4 MarumaruAtua
  2024-06-25T02:01:06UTC 2024-06-24T16:01:06CKT    2024-06-24T16:01:06-1000    4.57870 -148.60378      92   4.9 MarumaruAtua
  2024-06-25T01:01:06UTC 2024-06-24T15:01:06CKT    2024-06-24T15:01:06-1000    4.58117 -148.68598      92   5.4 MarumaruAtua
  2024-06-25T00:10:29UTC 2024-06-24T14:10:29CKT    2024-06-24T14:10:29-1000    4.58393 -148.76199     151   5.0 MarumaruAtua
  2024-06-24T16:30:00UTC 2024-06-24T06:30:00-10:00 2024-06-24T06:30:00-10:00   4.78802 -149.04433     179   4.1 MarumaruAtua
  2024-06-24T05:30:00UTC 2024-06-23T19:30:00-10:00 2024-06-23T19:30:00-10:00   5.55203 -149.05527     171   5.1 MarumaruAtua
  2024-06-23T03:30:00UTC 2024-06-22T17:30:00-10:00 2024-06-22T17:30:00-10:00   7.74090 -149.39872     159   6.2 MarumaruAtua
  2024-06-22T16:00:00UTC 2024-06-22T06:00:00-10:00 2024-06-22T06:00:00-10:00   8.86045 -149.81910     154   6.1 MarumaruAtua
  2024-06-22T04:00:00UTC 2024-06-21T18:00:00-10:00 2024-06-21T18:00:00-10:00   9.95003 -150.36477     153   5.8 MarumaruAtua
  2024-06-21T16:00:00UTC 2024-06-21T06:00:00-10:00 2024-06-21T06:00:00-10:00  10.99880 -150.89502     147   6.5 MarumaruAtua
  2024-06-21T04:00:00UTC 2024-06-20T18:00:00-10:00 2024-06-20T18:00:00-10:00  12.08365 -151.61680     148   5.8 MarumaruAtua
  2024-06-20T16:00:00UTC 2024-06-20T06:00:00-10:00 2024-06-20T06:00:00-10:00  13.06602 -152.24973     150   6.0 MarumaruAtua
  2024-06-20T03:30:00UTC 2024-06-19T17:30:00-10:00 2024-06-19T17:30:00-10:00  14.14915 -152.87760     149   5.7 MarumaruAtua
  2024-06-19T16:00:00UTC 2024-06-19T06:00:00-10:00 2024-06-19T06:00:00-10:00  15.09500 -153.45035     148   5.7 MarumaruAtua
  2024-06-19T04:00:00UTC 2024-06-18T18:00:00-10:00 2024-06-18T18:00:00-10:00  16.07633 -154.06967     150   5.2 MarumaruAtua
  2024-06-18T16:30:00UTC 2024-06-18T06:30:00-10:00 2024-06-18T06:30:00-10:00  16.94238 -154.59462     147   4.5 MarumaruAtua
  2024-06-18T04:00:00UTC 2024-06-17T18:00:00-10:00 2024-06-17T18:00:00-10:00  17.73278 -155.12832     147   5.6 MarumaruAtua
  2024-06-17T16:30:00UTC 2024-06-17T06:30:00-10:00 2024-06-17T06:30:00-10:00  18.64540 -155.74060     150   3.6 MarumaruAtua
  2024-06-17T04:00:00UTC 2024-06-16T18:00:00-10:00 2024-06-16T18:00:00-10:00  19.29475 -156.12972     145   6.4 MarumaruAtua
  2024-06-16T22:09:01UTC 2024-06-16T12:09:01-10:00 2024-06-16T12:09:01-10:00  19.81167 -156.50900     181   3.0 MarumaruAtua
  2024-06-16T16:00:00UTC 2024-06-16T06:00:00-10:00 2024-06-16T06:00:00-10:00  20.11820 -156.50120     120   4.3 MarumaruAtua
  2024-06-16T04:30:00UTC 2024-06-15T18:30:00-10:00 2024-06-15T18:30:00-10:00  20.53213 -157.27019     143   6.8 MarumaruAtua
  2024-06-15T20:00:00UTC 2024-06-15T10:00:00-10:00 2024-06-15T09:00:00-11:00  21.31306 -157.88866     277   0.2 MarumaruAtua
  2024-06-15T13:01:06UTC 2024-06-15T03:01:06CKT    2024-06-15T02:01:06-1100   21.31304 -157.88869      82   0.0 MarumaruAtua
  2024-06-11T18:23:09UTC 2024-06-11T08:23:09CKT    2024-06-11T07:23:09-1100   21.31305 -157.88872      43   0.0 MarumaruAtua
  2024-06-11T18:16:44UTC 2024-06-11T08:16:44CKT    2024-06-11T07:16:44-1100   21.31305 -157.88872       -   0.0 MarumaruAtua
  2024-06-01T04:30:00UTC 2024-05-31T18:30:00-10:00 2024-05-31T18:30:00-10:00  21.16467 -156.58700     305   6.9 MarumaruAtua
  2024-05-31T16:30:00UTC 2024-05-31T06:30:00-10:00 2024-05-31T06:30:00-10:00  20.36833 -155.37250     321   5.7 MarumaruAtua
  2024-05-31T04:00:00UTC 2024-05-30T18:00:00-10:00 2024-05-30T18:00:00-10:00  19.43800 -154.57938     323   7.5 MarumaruAtua
  2024-05-30T16:30:00UTC 2024-05-30T06:30:00-10:00 2024-05-30T06:30:00-10:00  18.27683 -153.66450     327   7.6 MarumaruAtua
  2024-05-30T04:00:00UTC 2024-05-29T18:00:00-10:00 2024-05-29T18:00:00-10:00  16.93983 -152.75383     327   8.3 MarumaruAtua
  2024-05-29T17:30:00UTC 2024-05-29T07:30:00-10:00 2024-05-29T07:30:00-10:00  15.71800 -151.92778     327   8.3 MarumaruAtua
  2024-05-29T04:00:01UTC 2024-05-28T18:00:01-10:00 2024-05-28T18:00:01-10:00  14.15850 -150.87650     332   8.4 MarumaruAtua
  2024-05-28T16:00:00UTC 2024-05-28T06:00:00-10:00 2024-05-28T06:00:00-10:00  12.67710 -150.06347     335   7.6 MarumaruAtua
  2024-05-28T03:30:01UTC 2024-05-27T17:30:01-10:00 2024-05-27T17:30:01-10:00  11.23583 -149.38217     335   5.9 MarumaruAtua
  2024-05-27T16:00:00UTC 2024-05-27T06:00:00-10:00 2024-05-27T06:00:00-10:00  10.20617 -148.89150     333   6.6 MarumaruAtua
  2024-05-26T16:00:00UTC 2024-05-26T06:00:00-10:00 2024-05-26T06:00:00-10:00   7.84833 -147.68500     344   5.2 MarumaruAtua
  2024-05-26T03:30:00UTC 2024-05-25T17:30:00-10:00 2024-05-25T17:30:00-10:00   6.79933 -147.37400     356   2.8 MarumaruAtua
  2024-05-25T17:00:00UTC 2024-05-25T07:00:00-10:00 2024-05-25T07:00:00-10:00   6.30583 -147.33815      15   4.1 MarumaruAtua
  2024-05-25T04:00:00UTC 2024-05-24T18:00:00-10:00 2024-05-24T18:00:00-10:00   5.43260 -147.56402      17   5.7 MarumaruAtua
  2024-05-24T16:00:00UTC 2024-05-24T06:00:00-10:00 2024-05-24T06:00:00-10:00   4.33900 -147.90380      22   8.2 MarumaruAtua
  2024-05-24T04:00:00UTC 2024-05-23T18:00:00-10:00 2024-05-23T18:00:00-10:00   2.80833 -148.52123      23   7.0 MarumaruAtua
  2024-05-23T17:30:03UTC 2024-05-23T07:30:03-10:00 2024-05-23T07:30:03-10:00   1.67898 -149.00380      25   6.8 MarumaruAtua
  2024-05-23T04:00:00UTC 2024-05-22T18:00:00-10:00 2024-05-22T18:00:00-10:00   0.29167 -149.65833      19   7.3 MarumaruAtua
  2024-05-22T17:00:00UTC 2024-05-22T07:00:00-10:00 2024-05-22T07:00:00-10:00  -0.99000 -150.08667      18   6.2 MarumaruAtua
  2024-05-22T07:18:01UTC 2024-05-21T21:18:01-10:00 2024-05-21T21:18:01-10:00  -1.95383 -150.40383      17   5.7 MarumaruAtua
  2024-05-22T04:00:00UTC 2024-05-21T18:00:00-10:00 2024-05-21T18:00:00-10:00  -2.25333 -150.49667       2   5.0 MarumaruAtua
  2024-05-21T18:00:00UTC 2024-05-21T08:00:00-10:00 2024-05-21T08:00:00-10:00  -3.09325 -150.51960     358   3.9 MarumaruAtua
  2024-05-21T07:24:00UTC 2024-05-20T21:24:00-10:00 2024-05-20T21:24:00-10:00  -3.78467 -150.49517      18   2.7 MarumaruAtua
  2024-05-21T04:30:00UTC 2024-05-20T18:30:00-10:00 2024-05-20T18:30:00-10:00  -3.90723 -150.53432       9   1.8 MarumaruAtua
  2024-05-20T16:00:00UTC 2024-05-20T06:00:00-10:00 2024-05-20T06:00:00-10:00  -4.27567 -150.59222      16   3.7 MarumaruAtua
  2024-05-20T04:30:00UTC 2024-05-19T18:30:00-10:00 2024-05-19T18:30:00-10:00  -4.95333 -150.78333      19   4.5 MarumaruAtua
  2024-05-19T16:00:00UTC 2024-05-19T06:00:00-10:00 2024-05-19T06:00:00-10:00  -5.83522 -151.08710      23   3.9 MarumaruAtua
  2024-05-19T04:00:00UTC 2024-05-18T18:00:00-10:00 2024-05-18T18:00:00-10:00  -6.55333 -151.38833      25   4.1 MarumaruAtua
  2024-05-18T19:40:00UTC 2024-05-18T09:40:00-10:00 2024-05-18T09:40:00-10:00  -7.06617 -151.63267      24   4.4 MarumaruAtua
  2024-05-18T16:30:00UTC 2024-05-18T06:30:00-10:00 2024-05-18T06:30:00-10:00  -7.27667 -151.72833      26   4.5 MarumaruAtua
  2024-05-18T07:38:00UTC 2024-05-17T21:38:00-10:00 2024-05-17T21:38:00-10:00  -7.87167 -152.01950      32   4.1 MarumaruAtua
  2024-05-18T04:30:00UTC 2024-05-17T18:30:00-10:00 2024-05-17T18:30:00-10:00  -8.05338 -152.13168      14   3.1 MarumaruAtua
  2024-05-17T16:00:00UTC 2024-05-17T06:00:00-10:00 2024-05-17T06:00:00-10:00  -8.68628 -152.28640      17   5.6 MarumaruAtua
  2024-05-17T07:45:00UTC 2024-05-16T21:45:00-10:00 2024-05-16T21:45:00-10:00  -9.42750 -152.51683      50  10.3 MarumaruAtua
  2024-05-17T04:30:00UTC 2024-05-16T18:30:00-10:00 2024-05-16T18:30:00-10:00  -9.79043 -152.95002     357   4.3 MarumaruAtua
  2024-05-16T19:30:00UTC 2024-05-16T09:30:00-10:00 2024-05-16T09:30:00-10:00 -10.44117 -152.91417      18   3.4 MarumaruAtua
  2024-05-16T17:30:00UTC 2024-05-16T07:30:00-10:00 2024-05-16T07:30:00-10:00 -10.55047 -152.95002      26   5.1 MarumaruAtua
  2024-05-16T04:00:00UTC 2024-05-15T18:00:00-10:00 2024-05-15T18:00:00-10:00 -11.59067 -153.45183      13   4.7 MarumaruAtua
  2024-05-15T16:30:00UTC 2024-05-15T06:30:00-10:00 2024-05-15T06:30:00-10:00 -12.46683 -153.64900      38   4.8 MarumaruAtua
  2024-05-15T04:00:00UTC 2024-05-14T18:00:00-10:00 2024-05-14T18:00:00-10:00 -13.27083 -154.27883      18   7.3 MarumaruAtua
  2024-05-14T16:00:00UTC 2024-05-14T06:00:00-10:00 2024-05-14T06:00:00-10:00 -14.66565 -154.73687      25   6.2 MarumaruAtua
  2024-05-14T04:00:00UTC 2024-05-13T18:00:00-10:00 2024-05-13T18:00:00-10:00 -15.79005 -155.27492      21   5.0 MarumaruAtua
  2024-05-13T16:00:00UTC 2024-05-13T06:00:00-10:00 2024-05-13T06:00:00-10:00 -16.72942 -155.65478      25   7.0 MarumaruAtua
  2024-05-13T04:00:00UTC 2024-05-12T18:00:00-10:00 2024-05-12T18:00:00-10:00 -18.01497 -156.26770      27   5.8 MarumaruAtua
  2024-05-12T16:00:00UTC 2024-05-12T06:00:00-10:00 2024-05-12T06:00:00-10:00 -19.05035 -156.81635      25   3.6 MarumaruAtua
  2024-05-12T04:00:00UTC 2024-05-11T18:00:00-10:00 2024-05-11T18:00:00-10:00 -19.70820 -157.13323      41   3.4 MarumaruAtua
  2024-05-11T16:00:00UTC 2024-05-11T06:00:00-10:00 2024-05-11T05:00:00-11:00 -20.22097 -157.59533      67   6.0 MarumaruAtua
  2024-05-11T04:00:00UTC 2024-05-10T18:00:00-10:00 2024-05-10T17:00:00-11:00 -20.68537 -158.76715      61   6.5 MarumaruAtua
  2024-05-10T18:00:00UTC 2024-05-10T08:00:00-10:00 2024-05-10T07:00:00-11:00 -21.20610 -159.77512     203   0.0 MarumaruAtua
    23-11-30T10:00:00UTC 24--2-00T18:00:00HS-10:00   23-11-30T00:00:00-10:00   4.55058 -148.50852       0   0.0 MarumaruAtua

  Jump to: Map   Top of Page   Track Data   Planned Ports of Call   Notes   Bottom of Page
  Planned ports of call:
    # arrive     depart      latitude  longitude port
    1 0000-00-00 2024-05-10 -21.20594 -159.77511 Avarua
    2 2024-05-11 2024-05-11 -20.14506 -157.36019 Mauke
    3 2024-06-03 2024-06-15  21.31306 -157.88866 Māmala/METC - Oʻahu, Hawaiʻi
    4 2024-07-?? ????-??-?? -21.20594 -159.77511 Avarua

  Jump to: Map   Top of Page   Track Data   Planned Ports of Call   Notes   Bottom of Page
  Notes:
  Coordinated Universal Time (UTC) has time zone designator "Z" and is essentially the same as Greenwich Mean Time (GMT)
  Cook Islands Standard Time (HST) is 10 hours behind UTC, i.e. 11:00:00 UTC is 01:00:00 HST

  The Approximate Local Time calculation is based on longitude only,
  i.e. 15 degrees of longitude per hour (Nautical time),
  it does not completely coincide with government selected time zone regions used on land.

  Here is a list of UTC time offsets for converting to your time zone.

  Here is another list of time zone offsets

------------------------------

  Conversion: 24/12 hour clock
  24 hour :  12 hour

      0   :  12 (midnight)
      1   :   1 AM
      2   :   2 AM
      3   :   3 AM
      4   :   4 AM
      5   :   5 AM
      6   :   6 AM
      7   :   7 AM
      8   :   8 AM
      9   :   9 AM
     10   :  10 AM
     11   :  11 AM
     12   :  12 (noon)
     13   :   1 PM
     14   :   2 PM
     15   :   3 PM
     16   :   4 PM
     17   :   5 PM
     18   :   6 PM
     19   :   7 PM
     20   :   8 PM
     21   :   9 PM
     22   :  10 PM
     23   :  11 PM

--------------------

                       + latitude = north
   - longitude = west                        + longitude = east
                       - latitude = south


  The five major circles of latitude:

  Arctic Circle        66° 33' 44" N  (  66.56222 )
  Tropic of Cancer     23° 26' 16" N  (  23.43778 )
  Equator               0° 00' 00"    (   0.00000 )
  Tropic of Capricorn  23° 26' 16" S  ( -23.43778 )
  Antarctic Circle     66° 33' 44" S  ( -66.56222 )

  View a map of Surface Winds (Courtesy of earth.nullschool.net)
  Additional maps and listings
  Archived maps
  Marumaru Atua information courtesy of Cook Islands Voyaging Society
  Comments, requests, suggestions? Send an e-mail to: Michael - mchlshntn@gmail.com
  Jump to: Map   Top of Page   Track Data   Planned Ports of Call   Notes   Bottom of Page
  Page updated: 2024-06-25T05:45:00 UTC // 2024-06-24T19:45:00 HST